createdAt,value
2022-09-12T00:01:17.075Z,5.40
2022-09-12T00:03:46.665Z,10.33
2022-09-12T00:06:22.573Z,6.90
2022-09-12T00:08:51.058Z,7.17
2022-09-12T00:11:19.590Z,9.10
2022-09-12T00:13:47.603Z,10.27
2022-09-12T00:16:17.813Z,10.17
2022-09-12T00:18:47.703Z,7.83
2022-09-12T00:21:16.537Z,9.97
2022-09-12T00:23:44.833Z,9.60
2022-09-12T00:26:12.924Z,9.60
2022-09-12T00:28:42.189Z,7.93
2022-09-12T00:31:12.388Z,8.03
2022-09-12T00:33:40.493Z,8.07
2022-09-12T00:36:12.205Z,8.00
2022-09-12T00:38:42.138Z,8.20
2022-09-12T00:41:16.388Z,12.67
2022-09-12T00:43:46.318Z,18.00
2022-09-12T00:46:29.133Z,10.13
2022-09-12T00:49:00.804Z,11.47
2022-09-12T00:51:32.469Z,12.00
2022-09-12T00:54:03.870Z,11.40
2022-09-12T00:56:32.426Z,11.10
2022-09-12T00:59:05.288Z,10.70
2022-09-12T01:01:33.303Z,12.50
2022-09-12T01:04:01.676Z,9.33
2022-09-12T01:06:36.541Z,12.77
2022-09-12T01:09:05.741Z,11.07
2022-09-12T01:11:35.491Z,12.20
2022-09-12T01:14:03.364Z,9.50
2022-09-12T01:16:31.462Z,8.13
2022-09-12T01:19:26.385Z,13.30
2022-09-12T01:22:09.085Z,8.00
2022-09-12T01:24:54.958Z,10.13
2022-09-12T01:27:48.095Z,8.60
2022-09-12T01:30:44.553Z,9.90
2022-09-12T01:33:37.019Z,10.33
2022-09-12T01:36:31.564Z,11.53
2022-09-12T01:39:03.187Z,9.87
2022-09-12T01:41:41.113Z,8.77
2022-09-12T01:44:15.494Z,11.03
2022-09-12T01:46:50.029Z,14.40
2022-09-12T01:49:22.776Z,8.37
2022-09-12T01:51:58.466Z,7.57
2022-09-12T01:54:31.854Z,9.30
2022-09-12T01:57:05.159Z,8.33
2022-09-12T01:59:38.183Z,13.40
2022-09-12T02:02:12.379Z,7.50
2022-09-12T02:04:47.842Z,10.13
2022-09-12T02:07:19.990Z,7.30
2022-09-12T02:09:51.712Z,8.53
2022-09-12T02:12:25.902Z,8.90
2022-09-12T02:14:58.194Z,7.63
2022-09-12T02:17:27.877Z,6.93
2022-09-12T02:19:58.590Z,11.33
2022-09-12T02:22:28.865Z,11.13
2022-09-12T02:25:00.088Z,11.10
2022-09-12T02:27:34.735Z,8.33
2022-09-12T02:30:02.766Z,7.13
2022-09-12T02:32:38.242Z,7.50
2022-09-12T02:35:12.359Z,5.40
2022-09-12T02:37:50.651Z,7.57
2022-09-12T02:40:19.755Z,8.50
2022-09-12T02:42:47.733Z,11.90
2022-09-12T02:45:16.335Z,11.00
2022-09-12T02:47:50.214Z,9.70
2022-09-12T02:50:18.608Z,10.23
2022-09-12T02:52:47.286Z,9.60
2022-09-12T02:55:16.512Z,10.07
2022-09-12T02:57:44.433Z,10.30
2022-09-12T03:00:14.142Z,12.20
2022-09-12T03:03:22.940Z,10.20
2022-09-12T03:05:57.531Z,14.10
2022-09-12T03:08:48.113Z,12.40
2022-09-12T03:11:34.388Z,12.40
2022-09-12T03:14:11.815Z,9.20
2022-09-12T03:16:49.097Z,11.13
2022-09-12T03:19:28.240Z,11.33
2022-09-12T03:22:10.164Z,10.43
2022-09-12T03:24:45.208Z,8.27
2022-09-12T03:27:17.375Z,9.40
2022-09-12T03:29:48.451Z,8.73
2022-09-12T03:32:16.906Z,8.83
2022-09-12T03:34:46.274Z,11.27
2022-09-12T03:37:14.316Z,8.53
2022-09-12T03:39:42.309Z,9.40
2022-09-12T03:42:10.271Z,9.07
2022-09-12T03:44:38.129Z,9.30
2022-09-12T03:47:10.555Z,8.90
2022-09-12T03:49:39.036Z,8.47
2022-09-12T03:52:11.512Z,9.63
2022-09-12T03:54:42.287Z,13.20
2022-09-12T03:57:10.175Z,12.53
2022-09-12T03:59:38.077Z,10.90
2022-09-12T04:02:06.341Z,11.00
2022-09-12T04:04:34.396Z,10.53
2022-09-12T04:07:02.434Z,9.77
2022-09-12T04:09:31.750Z,12.77
2022-09-12T04:11:59.803Z,12.93
2022-09-12T04:14:27.850Z,11.53
2022-09-12T04:16:55.934Z,13.60
2022-09-12T04:19:24.266Z,8.90
2022-09-12T04:21:52.131Z,13.57
2022-09-12T04:24:20.079Z,12.80
2022-09-12T04:26:49.570Z,11.03
2022-09-12T04:29:17.540Z,11.33
2022-09-12T04:31:45.865Z,9.87
2022-09-12T04:34:13.859Z,14.40
2022-09-12T04:36:41.785Z,14.20
2022-09-12T04:39:09.731Z,11.13
2022-09-12T04:41:40.185Z,14.40
2022-09-12T04:44:12.822Z,16.43
2022-09-12T04:46:43.269Z,14.23
2022-09-12T04:49:12.172Z,10.40
2022-09-12T04:51:42.615Z,10.20
2022-09-12T04:54:13.227Z,11.17
2022-09-12T04:56:42.531Z,10.33
2022-09-12T04:59:12.563Z,13.50
2022-09-12T05:01:41.231Z,11.80
2022-09-12T05:04:10.424Z,12.27
2022-09-12T05:06:39.059Z,11.10
2022-09-12T05:09:08.928Z,14.73
2022-09-12T05:12:03.170Z,16.13
2022-09-12T05:14:29.047Z,12.50
2022-09-12T05:17:00.010Z,11.10
2022-09-12T05:19:28.240Z,15.20
2022-09-12T05:21:56.355Z,18.33
2022-09-12T05:24:24.707Z,13.97
2022-09-12T05:26:53.058Z,18.40
2022-09-12T05:29:21.024Z,18.73
2022-09-12T05:31:52.314Z,22.47
2022-09-12T05:34:21.359Z,62.10
2022-09-12T05:36:49.457Z,53.30
2022-09-12T05:39:18.655Z,35.00
2022-09-12T05:41:47.435Z,17.97
2022-09-12T05:44:16.082Z,12.47
2022-09-12T05:46:45.559Z,11.97
2022-09-12T05:49:15.578Z,10.90
2022-09-12T05:51:45.323Z,7.07
2022-09-12T05:54:15.152Z,10.63
2022-09-12T05:56:45.000Z,9.73
2022-09-12T05:59:14.462Z,9.20
2022-09-12T06:01:43.061Z,10.20
2022-09-12T06:04:11.266Z,9.10
2022-09-12T06:06:43.520Z,10.30
2022-09-12T06:09:12.046Z,9.77
2022-09-12T06:11:41.815Z,7.00
2022-09-12T06:14:12.054Z,8.43
2022-09-12T06:16:40.764Z,8.10
2022-09-12T06:19:15.319Z,14.60
2022-09-12T06:21:45.642Z,14.13
2022-09-12T06:24:13.559Z,8.47
2022-09-12T06:26:41.604Z,10.60
2022-09-12T06:29:11.497Z,9.33
2022-09-12T06:31:41.376Z,10.47
2022-09-12T06:34:11.030Z,14.67
2022-09-12T06:36:41.397Z,12.67
2022-09-12T06:39:13.477Z,12.10
2022-09-12T06:41:43.962Z,10.20
2022-09-12T06:44:14.079Z,11.03
2022-09-12T06:46:41.941Z,11.30
2022-09-12T06:49:10.078Z,8.40
2022-09-12T06:51:37.971Z,6.20
2022-09-12T06:54:06.402Z,7.60
2022-09-12T06:56:35.970Z,8.27
2022-09-12T06:59:03.856Z,9.95
2022-09-12T07:01:32.913Z,9.48
2022-09-12T07:04:03.077Z,11.90
2022-09-12T07:06:36.019Z,9.93
2022-09-12T07:09:05.982Z,7.72
2022-09-12T07:11:36.654Z,8.90
2022-09-12T07:14:06.256Z,8.10
2022-09-12T07:16:35.866Z,11.38
2022-09-12T07:19:05.279Z,8.88
2022-09-12T07:21:33.207Z,9.70
2022-09-12T07:24:01.224Z,12.68
2022-09-12T07:26:30.758Z,11.98
2022-09-12T07:29:25.219Z,15.70
2022-09-12T07:31:48.296Z,10.07
2022-09-12T07:34:17.208Z,10.95
2022-09-12T07:36:45.276Z,11.23
2022-09-12T07:39:13.404Z,9.82
2022-09-12T07:41:41.897Z,10.98
2022-09-12T07:44:11.450Z,8.50
2022-09-12T07:46:39.983Z,9.82
2022-09-12T07:49:08.460Z,13.48
2022-09-12T07:51:36.698Z,13.20
2022-09-12T07:54:09.170Z,9.07
2022-09-12T07:56:39.317Z,10.30
2022-09-12T07:59:07.992Z,10.70
2022-09-12T08:01:37.593Z,13.45
2022-09-12T08:04:06.020Z,9.88
2022-09-12T08:06:36.069Z,8.73
2022-09-12T08:09:07.901Z,11.73
2022-09-12T08:11:36.250Z,9.82
2022-09-12T08:14:05.802Z,14.48
2022-09-12T08:16:34.633Z,9.35
2022-09-12T08:19:05.381Z,10.93
2022-09-12T08:21:34.319Z,11.27
2022-09-12T08:24:04.718Z,8.65
2022-09-12T08:26:33.828Z,10.35
2022-09-12T08:29:02.455Z,8.75
2022-09-12T08:31:31.986Z,9.80
2022-09-12T08:34:00.925Z,11.77
2022-09-12T08:36:30.944Z,18.48
2022-09-12T08:39:01.631Z,12.95
2022-09-12T08:41:32.980Z,10.02
2022-09-12T08:44:30.653Z,9.85
2022-09-12T08:47:15.462Z,9.85
2022-09-12T08:49:51.208Z,9.45
2022-09-12T08:52:25.146Z,10.68
2022-09-12T08:54:53.865Z,8.55
2022-09-12T08:57:22.382Z,8.82
2022-09-12T08:59:50.688Z,10.43
2022-09-12T09:02:56.138Z,11.05
2022-09-12T09:05:31.282Z,8.55
2022-09-12T09:08:31.935Z,7.70
2022-09-12T09:11:07.925Z,5.93
2022-09-12T09:14:08.321Z,6.60
2022-09-12T09:16:39.805Z,6.40
2022-09-12T09:19:13.985Z,7.35
2022-09-12T09:21:48.960Z,7.65
2022-09-12T09:24:22.110Z,5.80
2022-09-12T09:26:56.529Z,6.70
2022-09-12T09:29:27.777Z,10.55
2022-09-12T09:31:57.815Z,7.00
2022-09-12T09:34:29.133Z,6.53
2022-09-12T09:37:05.853Z,5.82
2022-09-12T09:39:47.801Z,5.15
2022-09-12T09:42:28.876Z,6.88
2022-09-12T09:45:01.211Z,5.00
2022-09-12T09:47:29.410Z,5.38
2022-09-12T09:49:57.526Z,6.00
2022-09-12T09:52:30.669Z,4.90
2022-09-12T09:55:02.794Z,7.35
2022-09-12T09:57:46.585Z,4.40
2022-09-12T10:00:32.373Z,11.90
2022-09-12T10:03:26.241Z,5.07
2022-09-12T10:05:57.104Z,10.02
2022-09-12T10:08:27.386Z,5.97
2022-09-12T10:10:59.604Z,5.90
2022-09-12T10:13:36.333Z,6.00
2022-09-12T10:16:07.042Z,5.97
2022-09-12T10:18:41.070Z,6.10
2022-09-12T10:21:32.773Z,4.55
2022-09-12T10:24:04.923Z,10.77
2022-09-12T10:26:37.410Z,5.40
2022-09-12T10:29:16.088Z,4.45
2022-09-12T10:31:51.301Z,5.40
2022-09-12T10:34:38.259Z,5.85
2022-09-12T10:37:08.202Z,4.78
2022-09-12T10:39:38.917Z,7.53
2022-09-12T10:42:08.553Z,5.43
2022-09-12T10:44:36.572Z,6.00
2022-09-12T10:47:24.337Z,6.03
2022-09-12T10:49:52.349Z,4.60
2022-09-12T10:52:24.665Z,5.75
2022-09-12T10:54:53.087Z,4.07
2022-09-12T10:57:52.232Z,5.00
2022-09-12T11:00:27.843Z,7.57
2022-09-12T11:03:04.508Z,4.78
2022-09-12T11:05:46.963Z,6.72
2022-09-12T11:08:44.081Z,4.05
2022-09-12T11:11:28.345Z,7.60
2022-09-12T11:14:14.333Z,5.43
2022-09-12T11:16:51.407Z,4.47
2022-09-12T11:19:51.471Z,3.97
2022-09-12T11:22:31.768Z,4.05
2022-09-12T11:25:26.013Z,4.72
2022-09-12T11:28:15.926Z,7.45
2022-09-12T11:30:58.368Z,8.75
2022-09-12T11:33:42.821Z,6.85
2022-09-12T11:36:24.521Z,7.18
2022-09-12T11:38:59.181Z,8.32
2022-09-12T11:41:33.845Z,7.88
2022-09-12T11:44:11.235Z,5.78
2022-09-12T11:46:42.617Z,7.05
2022-09-12T11:49:22.045Z,5.43
2022-09-12T11:51:54.880Z,7.15
2022-09-12T11:54:27.291Z,5.15
2022-09-12T11:57:05.149Z,9.75
2022-09-12T11:59:41.497Z,5.82
2022-09-12T12:02:26.554Z,6.55
2022-09-12T12:05:06.932Z,6.22
2022-09-12T12:07:45.579Z,7.55
2022-09-12T12:10:27.141Z,8.82
2022-09-12T12:12:56.957Z,8.48
2022-09-12T12:15:26.695Z,7.10
2022-09-12T12:18:05.989Z,8.05
2022-09-12T12:20:34.769Z,8.68
2022-09-12T12:23:03.115Z,8.15
2022-09-12T12:28:59.644Z,6.00
2022-09-12T12:31:29.175Z,6.95
2022-09-12T12:34:22.435Z,5.57
2022-09-12T12:36:50.621Z,6.15
2022-09-12T12:40:01.399Z,5.78
2022-09-12T12:43:21.491Z,7.97
2022-09-12T12:46:08.607Z,8.45
2022-09-12T12:48:53.344Z,12.70
2022-09-12T12:51:32.971Z,10.02
2022-09-12T12:54:11.009Z,6.97
2022-09-12T12:56:47.468Z,7.25
2022-09-12T12:59:20.404Z,6.35
2022-09-12T13:01:55.100Z,8.68
2022-09-12T13:04:26.311Z,6.03
2022-09-12T13:07:07.130Z,4.50
2022-09-12T13:09:40.476Z,4.22
2022-09-12T13:12:12.222Z,4.38
2022-09-12T13:14:55.610Z,3.63
2022-09-12T13:17:28.813Z,3.97
2022-09-12T13:20:26.799Z,5.72
2022-09-12T13:22:57.934Z,5.85
2022-09-12T13:25:29.840Z,6.80
2022-09-12T13:27:59.549Z,5.90
2022-09-12T13:30:29.861Z,4.90
2022-09-12T13:33:00.275Z,4.55
2022-09-12T13:35:41.290Z,3.67
2022-09-12T13:38:17.844Z,5.47
2022-09-12T13:41:00.184Z,5.10
2022-09-12T13:43:37.946Z,4.45
2022-09-12T13:46:07.390Z,4.13
2022-09-12T13:48:35.665Z,5.20
2022-09-12T13:51:05.849Z,8.02
2022-09-12T13:53:45.068Z,6.30
2022-09-12T13:56:18.119Z,5.13
2022-09-12T13:58:56.365Z,8.68
2022-09-12T14:04:35.270Z,5.05
2022-09-12T14:07:11.451Z,5.43
2022-09-12T14:09:43.710Z,6.65
2022-09-12T14:12:22.271Z,7.70
2022-09-12T14:14:51.943Z,3.60
2022-09-12T14:17:35.439Z,6.47
2022-09-12T14:20:10.230Z,6.20
2022-09-12T14:22:38.938Z,5.85
2022-09-12T14:25:16.635Z,9.20
2022-09-12T14:27:49.503Z,5.97
2022-09-12T14:30:30.413Z,8.38
2022-09-12T14:33:20.281Z,5.50
2022-09-12T14:35:49.982Z,4.93
2022-09-12T14:38:27.056Z,7.07
2022-09-12T14:41:02.630Z,5.53
2022-09-12T14:43:32.191Z,5.75
2022-09-12T14:46:02.550Z,4.90
2022-09-12T14:48:34.107Z,4.50
2022-09-12T14:51:02.341Z,5.25
2022-09-12T14:53:38.911Z,5.80
2022-09-12T14:56:13.041Z,4.93
2022-09-12T14:58:44.518Z,5.13
2022-09-12T15:01:27.562Z,6.20
2022-09-12T15:03:57.773Z,7.13
2022-09-12T15:06:30.007Z,5.20
2022-09-12T15:09:00.748Z,5.85
2022-09-12T15:11:30.763Z,7.30
2022-09-12T15:13:58.931Z,6.35
2022-09-12T15:16:27.151Z,7.03
2022-09-12T15:18:55.094Z,8.35
2022-09-12T15:21:23.396Z,11.45
2022-09-12T15:23:53.826Z,4.93
2022-09-12T15:26:23.508Z,6.40
2022-09-12T15:28:53.256Z,7.80
2022-09-12T15:31:26.077Z,5.25
2022-09-12T15:33:55.065Z,7.72
2022-09-12T15:36:24.952Z,4.30
2022-09-12T15:38:53.974Z,5.43
2022-09-12T15:41:24.249Z,5.30
2022-09-12T15:43:53.989Z,7.00
2022-09-12T15:46:27.624Z,6.20
2022-09-12T15:49:13.003Z,4.20
2022-09-12T15:51:42.782Z,5.43
2022-09-12T15:54:15.085Z,5.45
2022-09-12T15:56:44.005Z,5.05
2022-09-12T15:59:13.687Z,7.80
2022-09-12T16:01:41.953Z,5.32
2022-09-12T16:04:25.764Z,14.00
2022-09-12T16:06:56.193Z,5.13
2022-09-12T16:09:25.175Z,4.47
2022-09-12T16:11:53.155Z,4.90
2022-09-12T16:14:22.454Z,8.90
2022-09-12T16:16:54.730Z,5.40
2022-09-12T16:19:23.041Z,3.93
2022-09-12T16:21:51.511Z,4.60
2022-09-12T16:24:19.529Z,6.20
2022-09-12T16:26:47.647Z,4.97
2022-09-12T16:29:15.904Z,4.47
2022-09-12T16:31:45.538Z,5.03
2022-09-12T16:34:13.913Z,7.20
2022-09-12T16:36:42.107Z,11.70
2022-09-12T16:39:10.380Z,3.60
2022-09-12T16:41:42.432Z,10.77
2022-09-12T16:44:11.454Z,4.00
2022-09-12T16:46:39.812Z,5.60
2022-09-12T16:49:09.444Z,3.90
2022-09-12T16:51:37.849Z,3.27
2022-09-12T16:54:06.067Z,4.40
2022-09-12T16:56:34.532Z,4.90
2022-09-12T16:59:04.282Z,3.83
2022-09-12T17:01:33.690Z,4.33
2022-09-12T17:04:02.658Z,5.10
2022-09-12T17:06:33.940Z,4.40
2022-09-12T17:09:03.824Z,6.10
2022-09-12T17:11:33.621Z,5.70
2022-09-12T17:14:05.302Z,4.43
2022-09-12T17:16:35.419Z,6.07
2022-09-12T17:19:03.662Z,4.10
2022-09-12T17:21:33.448Z,5.47
2022-09-12T17:24:02.022Z,4.43
2022-09-12T17:26:30.094Z,4.30
2022-09-12T17:28:58.048Z,4.60
2022-09-12T17:31:26.668Z,9.83
2022-09-12T17:33:58.155Z,4.40
2022-09-12T17:36:27.174Z,8.63
2022-09-12T17:38:56.530Z,5.40
2022-09-12T17:41:26.425Z,4.93
2022-09-12T17:43:57.365Z,5.40
2022-09-12T17:46:27.404Z,4.70
2022-09-12T17:48:57.004Z,4.80
2022-09-12T17:51:29.378Z,5.10
2022-09-12T17:54:00.170Z,5.47
2022-09-12T17:56:29.770Z,4.63
2022-09-12T17:58:58.501Z,5.43
2022-09-12T18:01:45.608Z,5.07
2022-09-12T18:04:13.817Z,4.27
2022-09-12T18:06:47.820Z,4.70
2022-09-12T18:09:20.040Z,5.50
2022-09-12T18:11:48.857Z,5.37
2022-09-12T18:14:17.492Z,4.43
2022-09-12T18:16:46.023Z,6.27
2022-09-12T18:19:14.711Z,6.47
2022-09-12T18:21:42.882Z,6.40
2022-09-12T18:24:11.638Z,5.63
2022-09-12T18:26:41.046Z,9.27
2022-09-12T18:29:09.002Z,4.90
2022-09-12T18:31:37.260Z,4.63
2022-09-12T18:34:06.262Z,4.83
2022-09-12T18:36:35.042Z,4.77
2022-09-12T18:39:03.211Z,7.83
2022-09-12T18:41:32.515Z,6.63
2022-09-12T18:44:04.011Z,4.83
2022-09-12T18:46:34.463Z,7.80
2022-09-12T18:49:03.264Z,14.00
2022-09-12T18:51:34.937Z,6.70
2022-09-12T18:54:07.434Z,7.80
2022-09-12T18:56:39.621Z,11.60
2022-09-12T18:59:12.850Z,5.37
2022-09-12T19:01:41.311Z,5.80
2022-09-12T19:04:10.229Z,7.90
2022-09-12T19:06:40.003Z,8.00
2022-09-12T19:09:09.557Z,7.20
2022-09-12T19:11:39.514Z,15.50
2022-09-12T19:14:09.449Z,8.60
2022-09-12T19:16:37.829Z,7.10
2022-09-12T19:19:06.251Z,6.83
2022-09-12T19:21:35.330Z,7.23
2022-09-12T19:24:06.795Z,5.40
2022-09-12T19:26:35.604Z,5.90
2022-09-12T19:29:03.822Z,6.10
2022-09-12T19:31:36.343Z,9.33
2022-09-12T19:34:06.488Z,8.43
2022-09-12T19:36:51.435Z,7.13
2022-09-12T19:39:20.902Z,5.40
2022-09-12T19:41:50.744Z,6.80
2022-09-12T19:44:21.286Z,8.63
2022-09-12T19:46:51.201Z,5.43
2022-09-12T19:49:19.562Z,10.33
2022-09-12T19:51:47.749Z,8.73
2022-09-12T19:54:17.694Z,6.00
2022-09-12T19:56:45.653Z,6.00
2022-09-12T19:59:13.837Z,8.60
2022-09-12T20:01:42.028Z,5.97
2022-09-12T20:04:11.650Z,5.73
2022-09-12T20:06:39.721Z,6.73
2022-09-12T20:09:09.724Z,9.87
2022-09-12T20:11:44.440Z,6.90
2022-09-12T20:14:17.979Z,8.07
2022-09-12T20:16:45.946Z,6.23
2022-09-12T20:19:15.269Z,8.07
2022-09-12T20:21:43.684Z,9.27
2022-09-12T20:24:13.992Z,9.70
2022-09-12T20:26:42.557Z,7.90
2022-09-12T20:29:10.894Z,9.40
2022-09-12T20:31:40.603Z,7.10
2022-09-12T20:34:09.616Z,8.20
2022-09-12T20:36:39.034Z,7.00
2022-09-12T20:39:07.039Z,6.00
2022-09-12T20:41:36.375Z,6.00
2022-09-12T20:44:04.972Z,8.03
2022-09-12T20:46:36.066Z,6.93
2022-09-12T20:49:05.044Z,7.43
2022-09-12T20:51:33.469Z,6.17
2022-09-12T20:54:05.263Z,10.77
2022-09-12T20:56:38.281Z,11.50
2022-09-12T20:59:06.845Z,7.77
2022-09-12T21:01:38.685Z,7.67
2022-09-12T21:04:06.835Z,7.07
2022-09-12T21:06:34.761Z,6.90
2022-09-12T21:09:04.320Z,9.20
2022-09-12T21:11:32.273Z,8.07
2022-09-12T21:14:00.171Z,7.10
2022-09-12T21:16:28.278Z,7.00
2022-09-12T21:19:00.393Z,9.50
2022-09-12T21:21:28.637Z,9.53
2022-09-12T21:23:59.895Z,7.97
2022-09-12T21:26:29.482Z,8.80
2022-09-12T21:29:00.831Z,6.70
2022-09-12T21:31:28.988Z,7.13
2022-09-12T21:33:56.950Z,7.07
2022-09-12T21:36:26.422Z,7.30
2022-09-12T21:38:54.595Z,7.50
2022-09-12T21:41:22.643Z,8.70
2022-09-12T21:43:54.361Z,9.97
2022-09-12T21:46:22.842Z,6.57
2022-09-12T21:48:51.326Z,7.60
2022-09-12T21:51:19.382Z,6.67
2022-09-12T21:53:48.019Z,5.77
2022-09-12T21:56:16.645Z,7.13
2022-09-12T21:58:44.758Z,6.20
2022-09-12T22:01:14.550Z,6.67
2022-09-12T22:03:44.838Z,9.43
2022-09-12T22:06:14.715Z,7.30
2022-09-12T22:08:42.755Z,8.70
2022-09-12T22:11:11.129Z,8.33
2022-09-12T22:13:40.591Z,7.40
2022-09-12T22:16:08.748Z,8.27
2022-09-12T22:18:38.921Z,7.77
2022-09-12T22:21:09.442Z,6.67
2022-09-12T22:23:54.973Z,8.13
2022-09-12T22:26:23.459Z,8.60
2022-09-12T22:28:51.574Z,7.50
2022-09-12T22:31:19.623Z,6.60
2022-09-12T22:33:50.441Z,7.10
2022-09-12T22:36:18.509Z,6.87
2022-09-12T22:38:46.609Z,6.27
2022-09-12T22:41:14.646Z,5.70
2022-09-12T22:44:44.234Z,7.90
2022-09-12T22:47:27.799Z,11.90
2022-09-12T22:52:32.596Z,7.33
2022-09-12T22:55:00.569Z,12.00
2022-09-12T22:57:28.608Z,8.30
2022-09-12T22:59:56.791Z,12.93
2022-09-12T23:02:24.711Z,9.93
2022-09-12T23:04:53.251Z,10.57
2022-09-12T23:07:21.312Z,8.00
2022-09-12T23:09:50.580Z,9.07
2022-09-12T23:12:18.530Z,8.97
2022-09-12T23:14:46.703Z,9.17
2022-09-12T23:17:14.820Z,6.90
2022-09-12T23:19:42.871Z,9.53
2022-09-12T23:22:10.759Z,8.73
2022-09-12T23:24:39.105Z,9.60
2022-09-12T23:27:09.011Z,7.37
2022-09-12T23:29:37.747Z,6.97
2022-09-12T23:32:05.999Z,8.80
2022-09-12T23:34:33.922Z,5.80
2022-09-12T23:37:01.829Z,7.87
2022-09-12T23:39:29.953Z,5.87
2022-09-12T23:41:57.835Z,8.00
2022-09-12T23:44:27.070Z,7.67
2022-09-12T23:46:54.990Z,7.77
2022-09-12T23:49:22.924Z,6.63
2022-09-12T23:51:51.043Z,5.80
2022-09-12T23:54:18.943Z,12.33
2022-09-12T23:56:46.938Z,8.30
2022-09-12T23:59:14.836Z,6.20
